Архив погоды в Дербенте

Метеограмма Дербент
Суббота, 21 Октября
Время местн. Темп Ветер Видим Явления Облачность нижн/средн/верх Атм. давл. Влжн Точка росы ВНГО R Сост. почвы Tg s
Напр Скр Прв ур.ст ур.м изм
09:00 +17.3° С-В 1 - 20 км - ясно 766 764 +0.1 76% +13° более 2.5 км - - - -
06:00 +11° З 1 - 10 км - ясно 766 764 -0.1 84% +8.4° более 2.5 км 0 Влажная (без луж) +7° -
03:00 +11.5° З 1 - 10 км - ясно 766 764 -0.6 83% +8.7° более 2.5 км - - - -
00:00 +11.6° С-З 1 - 10 км - ясно 766 765 -0.5 81% +8.4° более 2.5 км - - - -
Пятница, 20 Октября
Время местн. Темп Ветер Видим Явления Облачность нижн/средн/верх Атм. давл. Влжн Точка росы ВНГО R Сост. почвы Tg s
Напр Скр Прв ур.ст ур.м изм
21:00 +13.1° З 1 - 10 км - ясно 767 765 +0.2 76% +9° более 2.5 км - - - -
18:00 +15° Ю 1 - 10 км - ясно 767 765 +0.2 77% +11° более 2.5 км 0 - - -
15:00 +17.5° В,Ю-В 2 - 20 км - ясно 766 765 -0.2 70% +12° более 2.5 км - - - -
12:00 +18.6° С,С-В 2 - 20 км - ясно 767 765 -0.7 67% +12.4° более 2.5 км - - - -
09:00 +18° С,С-З 1 - 20 км - ясно 767 766 +0.5 58% +9.5° более 2.5 км - - - -
06:00 +11.3° З 1 - 10 км - облачно с прояснениями 767 765 +0.2 84% +8.7° более 2.5 км 0 Влажная (без луж) +8° -
03:00 +11.8° З 1 - 10 км - облачно с прояснениями 767 765 -0.2 88% +9.9° - - - - -
00:00 +14.4° С-З 1 - 10 км - облачно с прояснениями 767 765 -0.7 83% +11.6° более 2.5 км - - - -
Четверг, 19 Октября
Время местн. Темп Ветер Видим Явления Облачность нижн/средн/верх Атм. давл. Влжн Точка росы ВНГО R Сост. почвы Tg s
Напр Скр Прв ур.ст ур.м изм
21:00 +15° З 2 - 10 км - облачно с прояснениями 768 766 0 83% +12.1° 1 км - - - -
18:00 +15.6° З,С-З 2 - 10 км - ясно 768 766 -0.1 80% +12.1° более 2.5 км 0 - - -
15:00 +18.8° С 4 - 20 км - ясно 768 766 -1.4 69% +12.9° более 2.5 км - - - -
12:00 +20.3° С-З 2 - 20 км - переменная облачность 769 767 -1.1 60% +12.3° 1 км - - - -
09:00 +18.3° В 2 - 20 км - переменная облачность 770 768 +0.1 64% +11.4° 1 км - - - -
06:00 +13.1° Ю 2 - 10 км - ясно 770 768 -0.2 79% +9.5° более 2.5 км 0 Влажная (без луж) +5° -
03:00 +10° Ю 1 - 10 км - переменная облачность 770 768 -0.8 87% +7.9° - - - - -
00:00 +12.8° Ю,Ю-З 1 - 10 км - преимущественно облачно 771 769 -0.5 79% +9.2° 1 км - - - -
Среда, 18 Октября
Время местн. Темп Ветер Видим Явления Облачность нижн/средн/верх Атм. давл. Влжн Точка росы ВНГО R Сост. почвы Tg s
Напр Скр Прв ур.ст ур.м изм
21:00 +14.1° Ю 1 - 10 км - преимущественно облачно 771 770 +0.1 74% +9.5° 1 км - - - -
18:00 +15.4° штиль 0 - 10 км - облачно 771 770 +0.5 73% +10.5° 1 км 0 - - -
15:00 +17.8° С 3 - 20 км - преимущественно облачно 771 769 +0.1 61% +10.2° 1 км - - - -
12:00 +15.9° С-З 2 - 20 км - облачно 771 769 +0.6 68% +10° 1 км - - - -
09:00 +15.8° В 1 - 20 км - преимущественно облачно 770 769 +2 71% +10.5° 600 м - - - -
06:00 +14.6° З 1 - 10 км - облачно 768 767 +2.1 65% +8.1° 600 м 0.3 Влажная (без луж) +8° -